createdAt,value
2019-01-31T00:00:50.619Z,977.96
2019-01-31T00:01:50.545Z,977.95
2019-01-31T00:02:50.469Z,977.92
2019-01-31T00:03:50.388Z,977.88
2019-01-31T00:04:50.310Z,977.84
2019-01-31T00:05:50.245Z,977.82
2019-01-31T00:06:50.178Z,977.81
2019-01-31T00:07:50.097Z,977.84
2019-01-31T00:08:50.022Z,977.85
2019-01-31T00:09:49.942Z,977.85
2019-01-31T00:10:49.870Z,977.84
2019-01-31T00:11:49.811Z,977.82
2019-01-31T00:12:49.735Z,977.81
2019-01-31T00:13:49.671Z,977.79
2019-01-31T00:14:49.609Z,977.75
2019-01-31T00:15:49.502Z,977.78
2019-01-31T00:16:49.426Z,977.74
2019-01-31T00:17:49.421Z,977.73
2019-01-31T00:18:49.286Z,977.72
2019-01-31T00:19:49.223Z,977.65
2019-01-31T00:20:49.146Z,977.65
2019-01-31T00:21:49.074Z,977.63
2019-01-31T00:22:48.990Z,977.58
2019-01-31T00:23:48.931Z,977.62
2019-01-31T00:24:48.863Z,977.59
2019-01-31T00:25:48.788Z,977.65
2019-01-31T00:26:48.709Z,977.68
2019-01-31T00:27:48.622Z,977.68
2019-01-31T00:28:48.547Z,977.71
2019-01-31T00:29:48.479Z,977.70
2019-01-31T00:30:48.404Z,977.65
2019-01-31T00:31:48.343Z,977.64
2019-01-31T00:32:48.269Z,977.59
2019-01-31T00:33:48.203Z,977.59
2019-01-31T00:34:48.122Z,977.62
2019-01-31T00:35:48.036Z,977.57
2019-01-31T00:36:47.958Z,977.59
2019-01-31T00:37:47.902Z,977.55
2019-01-31T00:38:56.495Z,977.54
2019-01-31T00:39:47.741Z,977.57
2019-01-31T00:40:47.692Z,977.60
2019-01-31T00:41:47.601Z,977.58
2019-01-31T00:42:47.522Z,977.55
2019-01-31T00:43:47.538Z,977.58
2019-01-31T00:44:47.393Z,977.60
2019-01-31T00:45:47.316Z,977.60
2019-01-31T00:46:47.262Z,977.60
2019-01-31T00:47:47.219Z,977.60
2019-01-31T00:48:47.080Z,977.58
2019-01-31T00:49:47.010Z,977.59
2019-01-31T00:50:46.938Z,977.57
2019-01-31T00:51:46.877Z,977.55
2019-01-31T00:52:46.886Z,977.49
2019-01-31T00:53:46.717Z,977.51
2019-01-31T00:54:46.641Z,977.58
2019-01-31T00:55:46.579Z,977.48
2019-01-31T00:56:46.515Z,977.44
2019-01-31T00:57:46.433Z,977.32
2019-01-31T00:58:46.363Z,977.33
2019-01-31T00:59:46.276Z,977.36
2019-01-31T01:00:46.202Z,977.36
2019-01-31T01:01:46.145Z,977.37
2019-01-31T01:02:46.072Z,977.36
2019-01-31T01:03:45.993Z,977.31
2019-01-31T01:04:45.913Z,977.27
2019-01-31T01:05:45.834Z,977.25
2019-01-31T01:06:45.763Z,977.22
2019-01-31T01:07:45.701Z,977.26
2019-01-31T01:08:45.630Z,977.25
2019-01-31T01:09:45.541Z,977.26
2019-01-31T01:10:45.467Z,977.25
2019-01-31T01:11:45.405Z,977.22
2019-01-31T01:12:45.332Z,977.24
2019-01-31T01:13:45.257Z,977.19
2019-01-31T01:14:45.187Z,977.17
2019-01-31T01:15:45.102Z,977.18
2019-01-31T01:16:45.030Z,977.12
2019-01-31T01:17:44.961Z,977.12
2019-01-31T01:18:44.881Z,977.09
2019-01-31T01:19:44.834Z,977.11
2019-01-31T01:20:44.756Z,977.04
2019-01-31T01:21:44.672Z,977.07
2019-01-31T01:22:44.605Z,977.05
2019-01-31T01:23:44.515Z,977.08
2019-01-31T01:24:44.457Z,977.05
2019-01-31T01:25:44.381Z,977.04
2019-01-31T01:26:44.374Z,977.07
2019-01-31T01:27:44.219Z,977.05
2019-01-31T01:28:44.148Z,977.07
2019-01-31T01:29:44.075Z,976.99
2019-01-31T01:30:44.003Z,976.95
2019-01-31T01:31:43.942Z,976.97
2019-01-31T01:32:43.872Z,976.96
2019-01-31T01:33:43.794Z,977.00
2019-01-31T01:34:43.723Z,976.91
2019-01-31T01:35:43.634Z,976.95
2019-01-31T01:36:43.566Z,976.88
2019-01-31T01:37:43.490Z,976.86
2019-01-31T01:38:43.416Z,976.86
2019-01-31T01:39:43.352Z,976.90
2019-01-31T01:40:43.283Z,976.93
2019-01-31T01:41:43.196Z,976.95
2019-01-31T01:42:43.118Z,976.99
2019-01-31T01:43:43.061Z,976.97
2019-01-31T01:44:42.984Z,977.03
2019-01-31T01:45:42.923Z,976.92
2019-01-31T01:46:42.841Z,976.98
2019-01-31T01:47:42.753Z,976.96
2019-01-31T01:48:42.683Z,976.97
2019-01-31T01:49:42.609Z,976.94
2019-01-31T01:50:42.536Z,976.90
2019-01-31T01:51:42.477Z,976.79
2019-01-31T01:52:42.401Z,976.83
2019-01-31T01:53:42.326Z,976.81
2019-01-31T01:54:42.254Z,976.80
2019-01-31T01:55:42.169Z,976.83
2019-01-31T01:56:42.090Z,976.76
2019-01-31T01:57:42.033Z,976.76
2019-01-31T01:58:41.965Z,976.75
2019-01-31T01:59:41.876Z,976.79
2019-01-31T02:00:41.796Z,976.79
2019-01-31T02:01:41.744Z,976.81
2019-01-31T02:02:41.651Z,976.84
2019-01-31T02:03:41.593Z,976.85
2019-01-31T02:04:41.526Z,976.84
2019-01-31T02:05:41.432Z,976.81
2019-01-31T02:06:41.359Z,976.72
2019-01-31T02:07:41.301Z,976.74
2019-01-31T02:08:41.226Z,976.72
2019-01-31T02:09:41.146Z,976.68
2019-01-31T02:10:41.072Z,976.67
2019-01-31T02:11:40.996Z,976.68
2019-01-31T02:12:40.920Z,976.69
2019-01-31T02:13:40.855Z,976.68
2019-01-31T02:14:40.787Z,976.63
2019-01-31T02:15:40.695Z,976.59
2019-01-31T02:16:40.621Z,976.56
2019-01-31T02:17:40.547Z,976.60
2019-01-31T02:18:40.477Z,976.62
2019-01-31T02:19:40.417Z,976.60
2019-01-31T02:20:40.349Z,976.60
2019-01-31T02:21:40.264Z,976.57
2019-01-31T02:22:40.195Z,976.54
2019-01-31T02:23:40.108Z,976.57
2019-01-31T02:24:40.036Z,976.57
2019-01-31T02:25:39.961Z,976.54
2019-01-31T02:26:39.917Z,976.55
2019-01-31T02:27:39.827Z,976.53
2019-01-31T02:28:39.747Z,976.51
2019-01-31T02:29:39.666Z,976.52
2019-01-31T02:30:39.592Z,976.48
2019-01-31T02:31:39.534Z,976.46
2019-01-31T02:32:39.459Z,976.44
2019-01-31T02:33:39.390Z,976.42
2019-01-31T02:34:39.313Z,976.41
2019-01-31T02:35:39.226Z,976.38
2019-01-31T02:36:39.152Z,976.36
2019-01-31T02:37:39.104Z,976.32
2019-01-31T02:38:39.008Z,976.31
2019-01-31T02:39:43.202Z,976.21
2019-01-31T02:40:38.853Z,976.24
2019-01-31T02:41:38.775Z,976.17
2019-01-31T02:42:38.698Z,976.18
2019-01-31T02:43:38.639Z,976.23
2019-01-31T02:44:38.563Z,976.25
2019-01-31T02:45:38.478Z,976.26
2019-01-31T02:46:38.401Z,976.25
2019-01-31T02:47:38.343Z,976.26
2019-01-31T02:48:38.268Z,976.20
2019-01-31T02:49:38.190Z,976.16
2019-01-31T02:50:38.116Z,976.12
2019-01-31T02:51:38.036Z,976.08
2019-01-31T02:52:37.953Z,976.10
2019-01-31T02:53:37.879Z,976.09
2019-01-31T02:54:37.807Z,976.05
2019-01-31T02:55:37.742Z,976.05
2019-01-31T02:56:37.671Z,976.06
2019-01-31T02:57:37.592Z,976.02
2019-01-31T02:58:37.517Z,975.99
2019-01-31T02:59:37.432Z,975.95
2019-01-31T03:00:37.362Z,975.94
2019-01-31T03:01:37.294Z,975.95
2019-01-31T03:02:37.235Z,975.91
2019-01-31T03:03:37.129Z,975.87
2019-01-31T03:04:37.067Z,975.85
2019-01-31T03:05:36.981Z,975.84
2019-01-31T03:06:36.907Z,975.78
2019-01-31T03:07:36.856Z,975.75
2019-01-31T03:08:36.767Z,975.69
2019-01-31T03:09:36.683Z,975.70
2019-01-31T03:10:39.358Z,975.65
2019-01-31T03:11:36.537Z,975.64
2019-01-31T03:12:36.467Z,975.66
2019-01-31T03:13:36.395Z,975.66
2019-01-31T03:14:36.317Z,975.60
2019-01-31T03:15:36.232Z,975.55
2019-01-31T03:16:36.175Z,975.48
2019-01-31T03:17:36.090Z,975.48
2019-01-31T03:18:36.018Z,975.42
2019-01-31T03:19:35.928Z,975.35
2019-01-31T03:20:35.852Z,975.41
2019-01-31T03:21:35.781Z,975.37
2019-01-31T03:22:35.695Z,975.39
2019-01-31T03:23:35.642Z,975.41
2019-01-31T03:24:35.577Z,975.35
2019-01-31T03:25:35.484Z,975.29
2019-01-31T03:26:35.416Z,975.26
2019-01-31T03:27:35.321Z,975.26
2019-01-31T03:28:35.241Z,975.33
2019-01-31T03:29:35.203Z,975.34
2019-01-31T03:30:35.097Z,975.32
2019-01-31T03:31:35.035Z,975.22
2019-01-31T03:32:34.953Z,975.22
2019-01-31T03:33:34.871Z,975.19
2019-01-31T03:34:34.793Z,975.18
2019-01-31T03:35:34.722Z,975.13
2019-01-31T03:36:34.647Z,975.14
2019-01-31T03:37:34.575Z,975.13
2019-01-31T03:38:34.503Z,975.09
2019-01-31T03:39:34.413Z,975.09
2019-01-31T03:40:34.337Z,975.08
2019-01-31T03:41:34.263Z,975.07
2019-01-31T03:42:34.186Z,975.04
2019-01-31T03:43:34.125Z,975.04
2019-01-31T03:44:34.046Z,974.95
2019-01-31T03:45:33.968Z,974.97
2019-01-31T03:46:33.898Z,974.96
2019-01-31T03:47:33.809Z,974.93
2019-01-31T03:48:33.736Z,975.03
2019-01-31T03:49:33.673Z,974.99
2019-01-31T03:50:33.595Z,974.96
2019-01-31T03:51:33.506Z,975.00
2019-01-31T03:52:33.442Z,974.93
2019-01-31T03:53:33.368Z,974.88
2019-01-31T03:54:33.289Z,974.83
2019-01-31T03:55:33.215Z,974.83
2019-01-31T03:56:33.141Z,974.82
2019-01-31T03:57:33.067Z,974.82
2019-01-31T03:58:32.991Z,974.85
2019-01-31T03:59:33.025Z,974.79
2019-01-31T04:00:32.830Z,974.81
2019-01-31T04:01:32.749Z,974.83
2019-01-31T04:02:32.678Z,974.81
2019-01-31T04:03:32.778Z,974.79
2019-01-31T04:04:32.538Z,974.82
2019-01-31T04:05:32.454Z,974.87
2019-01-31T04:06:32.375Z,974.87
2019-01-31T04:07:32.315Z,974.86
2019-01-31T04:08:32.237Z,974.85
2019-01-31T04:09:32.162Z,974.84
2019-01-31T04:10:32.084Z,974.88
2019-01-31T04:11:31.995Z,974.92
2019-01-31T04:12:31.924Z,974.88
2019-01-31T04:13:31.874Z,974.89
2019-01-31T04:14:31.785Z,974.87
2019-01-31T04:15:31.698Z,974.87
2019-01-31T04:16:31.625Z,974.84
2019-01-31T04:17:31.565Z,974.79
2019-01-31T04:18:31.477Z,974.81
2019-01-31T04:19:31.402Z,974.86
2019-01-31T04:20:31.328Z,974.78
2019-01-31T04:21:31.242Z,974.78
2019-01-31T04:22:31.172Z,974.76
2019-01-31T04:23:31.102Z,974.80
2019-01-31T04:24:31.033Z,974.77
2019-01-31T04:25:30.957Z,974.75
2019-01-31T04:26:30.878Z,974.75
2019-01-31T04:27:30.792Z,974.76
2019-01-31T04:28:30.998Z,974.73
2019-01-31T04:29:30.637Z,974.70
2019-01-31T04:30:30.567Z,974.67
2019-01-31T04:31:30.500Z,974.66
2019-01-31T04:32:30.538Z,974.64
2019-01-31T04:33:30.356Z,974.61
2019-01-31T04:34:30.275Z,974.60
2019-01-31T04:35:30.190Z,974.54
2019-01-31T04:36:30.110Z,974.57
2019-01-31T04:37:30.048Z,974.55
2019-01-31T04:38:29.970Z,974.57
2019-01-31T04:39:29.880Z,974.50
2019-01-31T04:40:31.508Z,974.53
2019-01-31T04:41:29.731Z,974.56
2019-01-31T04:42:29.656Z,974.55
2019-01-31T04:43:29.591Z,974.50
2019-01-31T04:44:29.514Z,974.53
2019-01-31T04:45:29.446Z,974.54
2019-01-31T04:46:29.364Z,974.48
2019-01-31T04:47:29.273Z,974.48
2019-01-31T04:48:29.197Z,974.48
2019-01-31T04:49:29.136Z,974.53
2019-01-31T04:50:29.047Z,974.46
2019-01-31T04:51:28.986Z,974.48
2019-01-31T04:52:28.915Z,974.41
2019-01-31T04:53:28.818Z,974.43
2019-01-31T04:54:28.739Z,974.33
2019-01-31T04:55:28.674Z,974.39
2019-01-31T04:56:28.600Z,974.38
2019-01-31T04:57:28.547Z,974.34
2019-01-31T04:58:28.450Z,974.35
2019-01-31T04:59:28.362Z,974.33
2019-01-31T05:00:28.284Z,974.37
2019-01-31T05:01:28.214Z,974.33
2019-01-31T05:02:28.131Z,974.31
2019-01-31T05:03:28.063Z,974.34
2019-01-31T05:04:27.992Z,974.26
2019-01-31T05:05:27.930Z,974.30
2019-01-31T05:06:27.840Z,974.26
2019-01-31T05:07:27.746Z,974.28
2019-01-31T05:08:30.879Z,974.32
2019-01-31T05:09:27.661Z,974.32
2019-01-31T05:10:27.532Z,974.33
2019-01-31T05:11:27.449Z,974.34
2019-01-31T05:12:27.369Z,974.42
2019-01-31T05:13:27.308Z,974.37
2019-01-31T05:14:27.218Z,974.40
2019-01-31T05:15:27.153Z,974.40
2019-01-31T05:16:27.086Z,974.33
2019-01-31T05:17:26.991Z,974.29
2019-01-31T05:18:27.047Z,974.19
2019-01-31T05:19:26.850Z,974.25
2019-01-31T05:20:26.773Z,974.31
2019-01-31T05:21:26.696Z,974.30
2019-01-31T05:22:26.637Z,974.31
2019-01-31T05:23:26.537Z,974.38
2019-01-31T05:24:26.463Z,974.33
2019-01-31T05:25:26.397Z,974.27
2019-01-31T05:26:26.326Z,974.26
2019-01-31T05:27:26.232Z,974.28
2019-01-31T05:28:26.154Z,974.25
2019-01-31T05:29:26.082Z,974.20
2019-01-31T05:30:26.005Z,974.17
2019-01-31T05:31:25.944Z,974.17
2019-01-31T05:32:25.866Z,974.15
2019-01-31T05:33:25.788Z,974.11
2019-01-31T05:34:25.713Z,974.17
2019-01-31T05:35:25.627Z,974.18
2019-01-31T05:36:25.572Z,974.23
2019-01-31T05:37:25.471Z,974.24
2019-01-31T05:38:25.398Z,974.20
2019-01-31T05:39:25.328Z,974.22
2019-01-31T05:40:25.265Z,974.20
2019-01-31T05:41:25.170Z,974.19
2019-01-31T05:42:25.094Z,974.20
2019-01-31T05:43:25.029Z,974.16
2019-01-31T05:44:24.952Z,974.11
2019-01-31T05:45:24.878Z,974.12
2019-01-31T05:46:24.799Z,974.08
2019-01-31T05:47:24.718Z,974.02
2019-01-31T05:48:24.639Z,974.02
2019-01-31T05:49:24.564Z,974.00
2019-01-31T05:50:24.490Z,973.95
2019-01-31T05:51:24.418Z,973.88
2019-01-31T05:52:24.342Z,973.85
2019-01-31T05:53:24.278Z,973.88
2019-01-31T05:54:24.194Z,973.87
2019-01-31T05:55:24.107Z,973.84
2019-01-31T05:56:24.045Z,973.86
2019-01-31T05:57:23.964Z,973.85
2019-01-31T05:58:23.885Z,973.87
2019-01-31T05:59:23.798Z,973.84
2019-01-31T06:00:23.722Z,973.87
2019-01-31T06:01:23.644Z,973.90
2019-01-31T06:02:23.571Z,973.91
2019-01-31T06:03:23.502Z,973.90
2019-01-31T06:04:23.426Z,973.91
2019-01-31T06:05:23.361Z,973.96
2019-01-31T06:06:23.274Z,973.98
2019-01-31T06:07:23.200Z,973.88
2019-01-31T06:08:23.112Z,973.87
2019-01-31T06:09:23.033Z,973.83
2019-01-31T06:10:22.957Z,973.91
2019-01-31T06:11:22.890Z,973.94
2019-01-31T06:12:22.814Z,973.90
2019-01-31T06:13:22.732Z,973.89
2019-01-31T06:14:22.649Z,973.89
2019-01-31T06:15:22.588Z,973.92
2019-01-31T06:16:22.515Z,973.93
2019-01-31T06:17:22.437Z,974.01
2019-01-31T06:18:22.367Z,973.97
2019-01-31T06:19:22.267Z,973.94
2019-01-31T06:20:22.209Z,973.86
2019-01-31T06:21:22.218Z,973.78
2019-01-31T06:22:24.881Z,973.82
2019-01-31T06:23:21.961Z,973.74
2019-01-31T06:24:21.888Z,973.78
2019-01-31T06:25:22.099Z,973.74
2019-01-31T06:26:21.799Z,973.69
2019-01-31T06:27:21.672Z,973.66
2019-01-31T06:28:21.598Z,973.67
2019-01-31T06:29:21.507Z,973.67
2019-01-31T06:30:21.460Z,973.63
2019-01-31T06:31:21.366Z,973.67
2019-01-31T06:32:21.293Z,973.69
2019-01-31T06:33:21.263Z,973.67
2019-01-31T06:34:21.175Z,973.72
2019-01-31T06:35:21.043Z,973.65
2019-01-31T06:36:20.973Z,973.73
2019-01-31T06:37:20.897Z,973.72
2019-01-31T06:38:20.818Z,973.77
2019-01-31T06:39:20.761Z,973.75
2019-01-31T06:40:20.678Z,973.74
2019-01-31T06:41:20.601Z,973.76
2019-01-31T06:42:20.529Z,973.75
2019-01-31T06:43:20.437Z,973.75
2019-01-31T06:44:20.359Z,973.76
2019-01-31T06:45:20.294Z,973.76
2019-01-31T06:46:20.216Z,973.84
2019-01-31T06:47:20.128Z,973.74
2019-01-31T06:48:20.052Z,973.74
2019-01-31T06:49:20.119Z,973.70
2019-01-31T06:50:19.899Z,973.75
2019-01-31T06:51:19.834Z,973.75
2019-01-31T06:52:19.758Z,973.75
2019-01-31T06:53:19.669Z,973.80
2019-01-31T06:54:19.597Z,973.77
2019-01-31T06:55:19.528Z,973.79
2019-01-31T06:56:19.446Z,973.72
2019-01-31T06:57:19.372Z,973.73
2019-01-31T06:58:19.322Z,973.72
2019-01-31T06:59:19.205Z,973.70
2019-01-31T07:00:19.147Z,973.71
2019-01-31T07:01:19.073Z,973.72
2019-01-31T07:02:18.991Z,973.72
2019-01-31T07:03:18.903Z,973.72
2019-01-31T07:04:18.827Z,973.76
2019-01-31T07:05:18.750Z,973.81
2019-01-31T07:06:18.673Z,973.86
2019-01-31T07:07:18.608Z,973.89
2019-01-31T07:08:18.571Z,973.93
2019-01-31T07:09:18.457Z,973.83
2019-01-31T07:10:18.379Z,973.80
2019-01-31T07:11:29.400Z,973.82
2019-01-31T07:12:18.217Z,973.81
2019-01-31T07:13:18.137Z,973.82
2019-01-31T07:14:18.065Z,973.85
2019-01-31T07:15:17.996Z,973.79
2019-01-31T07:16:17.920Z,973.76
2019-01-31T07:17:18.393Z,973.80
2019-01-31T07:18:17.758Z,973.80
2019-01-31T07:19:17.689Z,973.79
2019-01-31T07:20:17.615Z,973.78
2019-01-31T07:21:17.535Z,973.77
2019-01-31T07:22:17.456Z,973.74
2019-01-31T07:23:17.372Z,973.74
2019-01-31T07:24:17.292Z,973.67
2019-01-31T07:25:17.228Z,973.71
2019-01-31T07:26:17.158Z,973.71
2019-01-31T07:27:17.071Z,973.68
2019-01-31T07:28:16.989Z,973.74
2019-01-31T07:29:16.915Z,973.72
2019-01-31T07:30:16.837Z,973.73
2019-01-31T07:31:16.768Z,973.74
2019-01-31T07:32:16.697Z,973.75
2019-01-31T07:33:16.606Z,973.74
2019-01-31T07:34:16.528Z,973.70
2019-01-31T07:35:16.468Z,973.68
2019-01-31T07:36:16.388Z,973.65
2019-01-31T07:37:16.318Z,973.64
2019-01-31T07:38:16.239Z,973.69
2019-01-31T07:39:16.145Z,973.68
2019-01-31T07:40:16.078Z,973.68
2019-01-31T07:41:15.993Z,973.70
2019-01-31T07:42:15.928Z,973.67
2019-01-31T07:43:15.849Z,973.70
2019-01-31T07:44:15.777Z,973.67
2019-01-31T07:45:15.702Z,973.72
2019-01-31T07:46:15.611Z,973.71
2019-01-31T07:47:15.537Z,973.70
2019-01-31T07:48:15.471Z,973.79
2019-01-31T07:49:15.395Z,973.75
2019-01-31T07:50:15.303Z,973.75
2019-01-31T07:51:15.227Z,973.74
2019-01-31T07:52:15.151Z,973.79
2019-01-31T07:53:15.087Z,973.81
2019-01-31T07:54:15.010Z,973.81
2019-01-31T07:55:14.928Z,973.81
2019-01-31T07:56:14.859Z,973.78
2019-01-31T07:57:14.775Z,973.76
2019-01-31T07:58:14.684Z,973.89
2019-01-31T07:59:14.630Z,973.84
2019-01-31T08:00:14.536Z,973.91
2019-01-31T08:01:14.463Z,973.85
2019-01-31T08:02:14.389Z,973.91
2019-01-31T08:03:14.319Z,973.93
2019-01-31T08:04:14.233Z,973.86
2019-01-31T08:05:14.167Z,973.92
2019-01-31T08:06:14.083Z,973.97
2019-01-31T08:07:14.005Z,973.99
2019-01-31T08:08:13.931Z,974.01
2019-01-31T08:09:13.858Z,974.01
2019-01-31T08:10:13.778Z,974.00
2019-01-31T08:11:13.691Z,974.01
2019-01-31T08:12:13.608Z,974.02
2019-01-31T08:13:13.535Z,974.01
2019-01-31T08:14:13.491Z,974.03
2019-01-31T08:15:13.396Z,974.03
2019-01-31T08:16:13.321Z,974.01
2019-01-31T08:17:13.244Z,973.97
2019-01-31T08:18:13.217Z,974.03
2019-01-31T08:19:13.072Z,974.02
2019-01-31T08:20:13.009Z,974.11
2019-01-31T08:21:12.932Z,974.14
2019-01-31T08:22:12.843Z,974.22
2019-01-31T08:23:12.765Z,974.09
2019-01-31T08:24:12.693Z,974.13
2019-01-31T08:25:12.613Z,974.11
2019-01-31T08:26:12.548Z,974.12
2019-01-31T08:27:12.468Z,974.16
2019-01-31T08:28:12.387Z,974.19
2019-01-31T08:29:12.318Z,974.17
2019-01-31T08:30:12.239Z,974.19
2019-01-31T08:31:12.160Z,974.21
2019-01-31T08:32:12.088Z,974.23
2019-01-31T08:33:12.013Z,974.17
2019-01-31T08:34:11.923Z,974.21
2019-01-31T08:35:11.840Z,974.24
2019-01-31T08:36:11.775Z,974.27
2019-01-31T08:37:11.696Z,974.31
2019-01-31T08:38:11.616Z,974.26
2019-01-31T08:39:11.543Z,974.26
2019-01-31T08:40:11.457Z,974.28
2019-01-31T08:41:11.385Z,974.32
2019-01-31T08:42:11.312Z,974.30
2019-01-31T08:43:11.342Z,974.30
2019-01-31T08:44:11.169Z,974.28
2019-01-31T08:45:11.088Z,974.32
2019-01-31T08:46:10.994Z,974.34
2019-01-31T08:47:10.919Z,974.30
2019-01-31T08:48:10.837Z,974.35
2019-01-31T08:49:10.781Z,974.31
2019-01-31T08:50:10.701Z,974.33
2019-01-31T08:51:10.623Z,974.30
2019-01-31T08:52:10.538Z,974.29
2019-01-31T08:53:10.458Z,974.31
2019-01-31T08:54:10.391Z,974.26
2019-01-31T08:55:10.314Z,974.32
2019-01-31T08:56:10.245Z,974.33
2019-01-31T08:57:10.177Z,974.37
2019-01-31T08:58:10.082Z,974.41
2019-01-31T08:59:09.991Z,974.39
2019-01-31T09:00:09.919Z,974.34
2019-01-31T09:01:09.923Z,974.41
2019-01-31T09:02:12.467Z,974.37
2019-01-31T09:03:09.696Z,974.30
2019-01-31T09:04:09.624Z,974.32
2019-01-31T09:05:09.544Z,974.42
2019-01-31T09:06:09.451Z,974.38
2019-01-31T09:07:09.381Z,974.41
2019-01-31T09:08:09.309Z,974.37
2019-01-31T09:09:09.234Z,974.30
2019-01-31T09:10:09.150Z,974.33
2019-01-31T09:11:09.077Z,974.30
2019-01-31T09:12:15.478Z,974.36
2019-01-31T09:13:08.917Z,974.42
2019-01-31T09:14:08.850Z,974.38
2019-01-31T09:15:08.779Z,974.34
2019-01-31T09:16:08.697Z,974.27
2019-01-31T09:17:08.625Z,974.28
2019-01-31T09:18:08.533Z,974.21
2019-01-31T09:19:08.484Z,974.20
2019-01-31T09:20:08.377Z,974.18
2019-01-31T09:21:08.303Z,974.10
2019-01-31T09:22:08.233Z,974.14
2019-01-31T09:23:08.168Z,974.10
2019-01-31T09:24:08.069Z,974.18
2019-01-31T09:25:08.011Z,974.20
2019-01-31T09:26:07.934Z,974.23
2019-01-31T09:27:07.854Z,974.17
2019-01-31T09:28:07.772Z,974.21
2019-01-31T09:29:07.699Z,974.26
2019-01-31T09:30:07.607Z,974.26
2019-01-31T09:31:07.529Z,974.25
2019-01-31T09:32:07.463Z,974.29
2019-01-31T09:33:07.392Z,974.34
2019-01-31T09:34:07.299Z,974.32
2019-01-31T09:35:07.222Z,974.31
2019-01-31T09:36:07.147Z,974.31
2019-01-31T09:37:07.073Z,974.33
2019-01-31T09:38:07.004Z,974.38
2019-01-31T09:39:06.926Z,974.39
2019-01-31T09:40:06.845Z,974.43
2019-01-31T09:41:08.522Z,974.46
2019-01-31T09:42:06.698Z,974.34
2019-01-31T09:43:06.640Z,974.33
2019-01-31T09:44:06.549Z,974.30
2019-01-31T09:45:06.469Z,974.40
2019-01-31T09:46:06.375Z,974.41
2019-01-31T09:47:06.301Z,974.51
2019-01-31T09:48:06.222Z,974.54
2019-01-31T09:49:06.147Z,974.61
2019-01-31T09:50:06.092Z,974.63
2019-01-31T09:51:06.011Z,974.59
2019-01-31T09:52:05.931Z,974.61
2019-01-31T09:53:05.853Z,974.61
2019-01-31T09:54:05.765Z,974.55
2019-01-31T09:55:05.683Z,974.54
2019-01-31T09:56:05.626Z,974.56
2019-01-31T09:57:05.552Z,974.60
2019-01-31T09:58:05.459Z,974.64
2019-01-31T09:59:05.387Z,974.66
2019-01-31T10:00:05.307Z,974.64
2019-01-31T10:01:05.232Z,974.68
2019-01-31T10:02:05.172Z,974.71
2019-01-31T10:03:05.086Z,974.77
2019-01-31T10:04:05.016Z,974.80
2019-01-31T10:05:04.940Z,974.76
2019-01-31T10:06:04.861Z,974.77
2019-01-31T10:07:04.778Z,974.77
2019-01-31T10:08:04.695Z,974.77
2019-01-31T10:09:04.628Z,974.71
2019-01-31T10:10:04.586Z,974.67
2019-01-31T10:11:04.483Z,974.63
2019-01-31T10:12:04.429Z,974.72
2019-01-31T10:13:04.372Z,974.71
2019-01-31T10:14:04.331Z,974.70
2019-01-31T10:15:04.204Z,974.69
2019-01-31T10:16:04.113Z,974.70
2019-01-31T10:17:04.061Z,974.70
2019-01-31T10:18:03.994Z,974.71
2019-01-31T10:19:03.874Z,974.68
2019-01-31T10:20:03.800Z,974.65
2019-01-31T10:21:03.715Z,974.68
2019-01-31T10:22:03.694Z,974.67
2019-01-31T10:23:03.614Z,974.70
2019-01-31T10:24:03.502Z,974.73
2019-01-31T10:25:03.534Z,974.67
2019-01-31T10:26:03.337Z,974.66
2019-01-31T10:27:03.271Z,974.65
2019-01-31T10:28:03.198Z,974.62
2019-01-31T10:29:03.127Z,974.61
2019-01-31T10:30:03.033Z,974.63
2019-01-31T10:31:02.966Z,974.55
2019-01-31T10:32:02.892Z,974.47
2019-01-31T10:33:02.837Z,974.55
2019-01-31T10:34:02.749Z,974.54
2019-01-31T10:35:02.676Z,974.51
2019-01-31T10:36:05.610Z,974.50
2019-01-31T10:37:02.515Z,974.44
2019-01-31T10:38:02.447Z,974.43
2019-01-31T10:39:02.383Z,974.42
2019-01-31T10:40:02.296Z,974.38
2019-01-31T10:41:02.220Z,974.33
2019-01-31T10:42:02.138Z,974.32
2019-01-31T10:43:02.063Z,974.35
2019-01-31T10:44:02.028Z,974.43
2019-01-31T10:45:01.925Z,974.45
2019-01-31T10:46:01.849Z,974.46
2019-01-31T10:47:01.759Z,974.53
2019-01-31T10:48:01.695Z,974.65
2019-01-31T10:49:01.610Z,974.71
2019-01-31T10:50:01.549Z,974.69
2019-01-31T10:51:01.476Z,974.64
2019-01-31T10:52:01.394Z,974.59
2019-01-31T10:53:01.327Z,974.44
2019-01-31T10:54:01.237Z,974.36
2019-01-31T10:55:01.166Z,974.40
2019-01-31T10:56:01.089Z,974.44
2019-01-31T10:57:01.015Z,974.49
2019-01-31T10:58:00.948Z,974.46
2019-01-31T10:59:00.878Z,974.44
2019-01-31T11:00:00.787Z,974.48
2019-01-31T11:01:00.715Z,974.47
2019-01-31T11:02:00.654Z,974.39
2019-01-31T11:03:00.575Z,974.40
2019-01-31T11:04:00.499Z,974.42
2019-01-31T11:05:00.427Z,974.46
2019-01-31T11:06:00.338Z,974.48
2019-01-31T11:07:00.265Z,974.47
2019-01-31T11:08:00.221Z,974.42
2019-01-31T11:09:00.133Z,974.44
2019-01-31T11:10:00.049Z,974.44
2019-01-31T11:10:59.986Z,974.44
2019-01-31T11:11:59.897Z,974.40
2019-01-31T11:13:00.981Z,974.33
2019-01-31T11:13:59.760Z,974.33
2019-01-31T11:14:59.684Z,974.31
2019-01-31T11:15:59.607Z,974.26
2019-01-31T11:16:59.532Z,974.22
2019-01-31T11:17:59.471Z,974.25
2019-01-31T11:19:11.128Z,974.23
2019-01-31T11:19:59.316Z,974.24
2019-01-31T11:20:59.243Z,974.27
2019-01-31T11:21:59.158Z,974.24
2019-01-31T11:22:59.079Z,974.24
2019-01-31T11:23:59.006Z,974.20
2019-01-31T11:24:58.940Z,974.22
2019-01-31T11:25:58.877Z,974.21
2019-01-31T11:26:58.800Z,974.20
2019-01-31T11:27:58.723Z,974.19
2019-01-31T11:28:58.649Z,974.16
2019-01-31T11:29:58.566Z,974.12
2019-01-31T11:30:58.490Z,974.07
2019-01-31T11:31:58.434Z,974.04
2019-01-31T11:32:58.355Z,974.06
2019-01-31T11:33:58.276Z,974.13
2019-01-31T11:34:58.201Z,974.09
2019-01-31T11:35:58.128Z,974.05
2019-01-31T11:36:58.058Z,973.99
2019-01-31T11:37:57.998Z,974.04
2019-01-31T11:39:00.062Z,974.07
2019-01-31T11:39:57.838Z,974.08
2019-01-31T11:40:57.765Z,974.08
2019-01-31T11:41:57.703Z,974.02
2019-01-31T11:42:57.630Z,974.01
2019-01-31T11:43:57.558Z,973.98
2019-01-31T11:44:57.484Z,973.94
2019-01-31T11:45:57.397Z,973.87
2019-01-31T11:46:57.325Z,973.94
2019-01-31T11:47:57.267Z,973.93
2019-01-31T11:48:57.194Z,973.94
2019-01-31T11:49:57.105Z,973.92
2019-01-31T11:50:57.029Z,973.98
2019-01-31T11:51:56.967Z,973.84
2019-01-31T11:52:56.887Z,973.83
2019-01-31T11:53:56.825Z,973.81
2019-01-31T11:54:56.753Z,973.83
2019-01-31T11:55:56.675Z,973.82
2019-01-31T11:57:05.280Z,973.77
2019-01-31T11:57:56.527Z,973.75
2019-01-31T11:58:56.449Z,973.75
2019-01-31T11:59:56.375Z,973.67
2019-01-31T12:00:56.308Z,973.62
2019-01-31T12:01:56.244Z,973.57
2019-01-31T12:02:56.171Z,973.59
2019-01-31T12:03:56.085Z,973.57
2019-01-31T12:04:56.011Z,973.56
2019-01-31T12:05:55.961Z,973.60
2019-01-31T12:06:55.877Z,973.64
2019-01-31T12:07:55.798Z,973.62
2019-01-31T12:08:55.731Z,973.63
2019-01-31T12:09:55.699Z,973.58
2019-01-31T12:10:55.574Z,973.61
2019-01-31T12:11:55.505Z,973.58
2019-01-31T12:12:55.533Z,973.60
2019-01-31T12:13:55.363Z,973.59
2019-01-31T12:14:55.311Z,973.61
2019-01-31T12:15:55.222Z,973.60
2019-01-31T12:16:55.154Z,973.58
2019-01-31T12:17:55.065Z,973.56
2019-01-31T12:18:54.993Z,973.58
2019-01-31T12:19:54.934Z,973.53
2019-01-31T12:20:54.856Z,973.46
2019-01-31T12:21:54.773Z,973.44
2019-01-31T12:22:54.703Z,973.41
2019-01-31T12:23:54.623Z,973.45
2019-01-31T12:24:54.553Z,973.38
2019-01-31T12:25:54.490Z,973.43
2019-01-31T12:26:54.419Z,973.40
2019-01-31T12:27:54.344Z,973.35